createdAt,value
2023-03-08T00:00:44.757Z,144934.47
2023-03-08T00:01:47.289Z,144926.09
2023-03-08T00:02:49.685Z,144929.69
2023-03-08T00:03:57.819Z,144951.31
2023-03-08T00:05:00.886Z,144927.28
2023-03-08T00:06:08.528Z,144940.50
2023-03-08T00:07:11.036Z,144934.47
2023-03-08T00:08:13.658Z,144921.28
2023-03-08T00:09:16.204Z,144926.09
2023-03-08T00:10:18.839Z,144923.69
2023-03-08T00:11:21.358Z,144936.91
2023-03-08T00:12:24.239Z,144927.28
2023-03-08T00:13:26.641Z,144933.28
2023-03-08T00:14:29.162Z,144934.47
2023-03-08T00:15:31.682Z,144922.50
2023-03-08T00:16:34.458Z,144932.09
2023-03-08T00:17:39.969Z,144947.72
2023-03-08T00:18:42.486Z,144927.28
2023-03-08T00:19:45.248Z,144918.91
2023-03-08T00:20:47.887Z,144916.50
2023-03-08T00:21:50.406Z,144912.91
2023-03-08T00:22:52.820Z,144911.72
2023-03-08T00:23:55.329Z,144898.47
2023-03-08T00:24:57.966Z,144904.53
2023-03-08T00:26:00.608Z,144891.28
2023-03-08T00:27:03.613Z,144888.91
2023-03-08T00:28:06.131Z,144899.69
2023-03-08T00:29:08.714Z,144910.50
2023-03-08T00:30:13.104Z,144934.47
2023-03-08T00:31:15.675Z,144900.88
2023-03-08T00:32:18.316Z,144927.28
2023-03-08T00:33:20.899Z,144921.28
2023-03-08T00:34:23.540Z,144915.31
2023-03-08T00:35:26.119Z,144900.88
2023-03-08T00:36:28.706Z,144893.69
2023-03-08T00:37:31.224Z,144893.69
2023-03-08T00:38:36.264Z,144910.50
2023-03-08T00:39:39.024Z,144898.47
2023-03-08T00:40:41.542Z,144898.47
2023-03-08T00:41:44.066Z,144892.50
2023-03-08T00:42:46.592Z,144890.09
2023-03-08T00:43:49.477Z,144900.88
2023-03-08T00:44:51.990Z,144897.28
2023-03-08T00:45:54.631Z,144896.09
2023-03-08T00:46:58.036Z,144903.28
2023-03-08T00:48:00.630Z,144903.28
2023-03-08T00:49:04.949Z,144922.50
2023-03-08T00:50:07.955Z,144920.09
2023-03-08T00:51:14.672Z,144956.09
2023-03-08T00:52:17.202Z,144929.69
2023-03-08T00:53:20.558Z,144948.91
2023-03-08T00:54:23.196Z,144941.72
2023-03-08T00:55:25.719Z,144929.69
2023-03-08T00:56:28.236Z,144922.50
2023-03-08T00:57:33.292Z,144921.28
2023-03-08T00:58:37.497Z,144934.47
2023-03-08T00:59:40.116Z,144918.91
2023-03-08T01:00:42.796Z,144915.31
2023-03-08T01:01:45.163Z,144903.28
2023-03-08T01:02:47.684Z,144905.72
2023-03-08T01:03:50.335Z,144912.91
2023-03-08T01:04:52.839Z,144894.88
2023-03-08T01:05:58.009Z,144896.09
2023-03-08T01:07:01.254Z,144884.09
2023-03-08T01:08:05.202Z,144876.91
2023-03-08T01:09:07.722Z,144870.88
2023-03-08T01:10:11.324Z,144869.69
2023-03-08T01:11:25.367Z,144884.09
2023-03-08T01:12:27.765Z,144855.31
2023-03-08T01:13:35.572Z,144888.91
2023-03-08T01:14:38.478Z,144862.50
2023-03-08T01:15:42.527Z,144878.09
2023-03-08T01:16:45.167Z,144867.28
2023-03-08T01:17:48.294Z,144867.28
2023-03-08T01:18:50.824Z,144850.50
2023-03-08T01:19:55.493Z,144861.28
2023-03-08T01:21:00.169Z,144860.09
2023-03-08T01:22:02.693Z,144855.31
2023-03-08T01:23:05.346Z,144833.69
2023-03-08T01:24:07.853Z,144830.09
2023-03-08T01:25:10.621Z,144833.69
2023-03-08T01:26:33.896Z,144869.69
2023-03-08T01:27:36.420Z,144840.91
2023-03-08T01:28:39.415Z,144846.91
2023-03-08T01:29:42.299Z,144872.13
2023-03-08T01:30:44.815Z,144879.31
2023-03-08T01:31:47.338Z,144872.13
2023-03-08T01:32:49.978Z,144874.50
2023-03-08T01:33:52.505Z,144869.69
2023-03-08T01:34:55.625Z,144867.28
2023-03-08T01:35:58.176Z,144860.09
2023-03-08T01:37:00.666Z,144867.28
2023-03-08T01:38:03.205Z,144867.28
2023-03-08T01:39:05.710Z,144860.09
2023-03-08T01:40:10.745Z,144861.28
2023-03-08T01:41:28.275Z,144864.88
2023-03-08T01:42:30.904Z,144838.47
2023-03-08T01:43:42.544Z,144852.91
2023-03-08T01:45:03.788Z,144870.88
2023-03-08T01:46:26.945Z,144867.28
2023-03-08T01:47:36.906Z,144840.91
2023-03-08T01:49:33.803Z,144854.09
2023-03-08T01:50:39.795Z,144831.28
2023-03-08T01:51:49.993Z,144842.13
2023-03-08T01:52:55.868Z,144824.09
2023-03-08T01:54:01.393Z,144821.72
2023-03-08T01:55:07.771Z,144834.88
2023-03-08T01:56:13.394Z,144856.50
2023-03-08T01:57:33.333Z,144876.91
2023-03-08T01:58:36.197Z,144833.69
2023-03-08T01:59:40.044Z,144838.47
2023-03-08T02:00:42.926Z,144816.91
2023-03-08T02:01:45.691Z,144821.72
2023-03-08T02:02:59.843Z,144845.72
2023-03-08T02:04:03.320Z,144809.72
2023-03-08T02:05:10.038Z,144833.69
2023-03-08T02:06:15.078Z,144830.09
2023-03-08T02:07:18.323Z,144819.31
2023-03-08T02:08:21.318Z,144824.09
2023-03-08T02:09:24.804Z,144819.31
2023-03-08T02:10:28.759Z,144804.88
2023-03-08T02:11:34.171Z,144830.09
2023-03-08T02:12:37.162Z,144812.13
2023-03-08T02:13:41.245Z,144812.13
2023-03-08T02:14:44.612Z,144826.50
2023-03-08T02:15:47.639Z,144813.31
2023-03-08T02:16:50.369Z,144824.09
2023-03-08T02:17:52.898Z,144827.69
2023-03-08T02:19:02.974Z,144840.91
2023-03-08T02:20:14.611Z,144830.09
2023-03-08T02:21:17.376Z,144810.94
2023-03-08T02:22:20.618Z,144792.91
2023-03-08T02:23:25.419Z,144795.31
2023-03-08T02:24:27.961Z,144776.16
2023-03-08T02:25:30.577Z,144790.53
2023-03-08T02:26:36.578Z,144804.88
2023-03-08T02:27:41.377Z,144785.72
2023-03-08T02:28:44.260Z,144792.91
2023-03-08T02:29:46.901Z,144795.31
2023-03-08T02:30:51.338Z,144791.72
2023-03-08T02:31:53.741Z,144801.31
2023-03-08T02:32:56.383Z,144806.09
2023-03-08T02:33:58.784Z,144822.91
2023-03-08T02:35:03.014Z,144809.72
2023-03-08T02:36:08.188Z,144832.50
2023-03-08T02:37:10.792Z,144830.09
2023-03-08T02:38:15.956Z,144836.09
2023-03-08T02:39:18.350Z,144810.94
2023-03-08T02:40:20.869Z,144824.09
2023-03-08T02:41:23.397Z,144816.91
2023-03-08T02:42:26.028Z,144836.09
2023-03-08T02:43:28.458Z,144824.09
2023-03-08T02:44:30.966Z,144821.72
2023-03-08T02:45:34.196Z,144815.72
2023-03-08T02:46:37.341Z,144813.31
2023-03-08T02:47:40.076Z,144819.31
2023-03-08T02:48:42.595Z,144824.09
2023-03-08T02:49:45.232Z,144822.91
2023-03-08T02:50:47.999Z,144810.94
2023-03-08T02:51:50.396Z,144814.53
2023-03-08T02:52:52.914Z,144795.31
2023-03-08T02:53:55.438Z,144792.91
2023-03-08T02:54:58.078Z,144780.94
2023-03-08T02:56:01.199Z,144771.31
2023-03-08T02:57:04.556Z,144761.72
2023-03-08T02:58:09.364Z,144778.53
2023-03-08T02:59:11.757Z,144774.94
2023-03-08T03:00:14.398Z,144759.31
2023-03-08T03:01:16.855Z,144782.13
2023-03-08T03:02:19.320Z,144760.53
2023-03-08T03:03:21.612Z,144756.94
2023-03-08T03:04:30.973Z,144785.72
2023-03-08T03:05:33.729Z,144754.53
2023-03-08T03:06:39.969Z,144750.94
2023-03-08T03:07:43.928Z,144776.16
2023-03-08T03:08:51.859Z,144750.94
2023-03-08T03:09:54.737Z,144748.53
2023-03-08T03:10:57.609Z,144750.94
2023-03-08T03:12:00.141Z,144760.53
2023-03-08T03:13:03.965Z,144785.72
2023-03-08T03:14:07.933Z,144772.50
2023-03-08T03:15:15.365Z,144761.72
2023-03-08T03:16:20.048Z,144744.94
2023-03-08T03:17:22.567Z,144768.91
2023-03-08T03:18:24.983Z,144752.16
2023-03-08T03:19:27.611Z,144744.94
2023-03-08T03:20:30.251Z,144764.13
2023-03-08T03:21:32.770Z,144747.34
2023-03-08T03:22:36.371Z,144766.50
2023-03-08T03:23:41.885Z,144785.72
2023-03-08T03:24:47.180Z,144768.91
2023-03-08T03:25:49.929Z,144777.34
2023-03-08T03:26:54.507Z,144768.91
2023-03-08T03:27:59.301Z,144783.31
2023-03-08T03:29:04.092Z,144802.50
2023-03-08T03:30:10.934Z,144801.31
2023-03-08T03:31:17.808Z,144798.91
2023-03-08T03:32:20.468Z,144788.13
2023-03-08T03:33:23.175Z,144790.53
2023-03-08T03:34:25.939Z,144780.94
2023-03-08T03:35:28.572Z,144778.53
2023-03-08T03:36:31.369Z,144785.72
2023-03-08T03:37:35.652Z,144778.53
2023-03-08T03:38:39.984Z,144814.53
2023-03-08T03:39:42.862Z,144778.53
2023-03-08T03:40:48.501Z,144800.09
2023-03-08T03:41:51.393Z,144795.31
2023-03-08T03:42:54.392Z,144785.72
2023-03-08T03:43:58.943Z,144807.34
2023-03-08T03:45:01.459Z,144789.31
2023-03-08T03:46:06.470Z,144798.91
2023-03-08T03:47:09.142Z,144774.94
2023-03-08T03:48:11.670Z,144759.31
2023-03-08T03:49:14.199Z,144766.50
2023-03-08T03:50:19.227Z,144779.75
2023-03-08T03:51:28.485Z,144791.72
2023-03-08T03:52:43.113Z,144788.13
2023-03-08T03:53:46.115Z,144806.09
2023-03-08T03:54:49.355Z,144800.09
2023-03-08T03:55:52.052Z,144782.13
2023-03-08T03:56:58.315Z,144792.91
2023-03-08T03:58:03.661Z,144773.69
2023-03-08T03:59:07.117Z,144767.72
2023-03-08T04:00:10.493Z,144788.13
2023-03-08T04:01:28.239Z,144784.53
2023-03-08T04:02:37.041Z,144765.31
2023-03-08T04:03:39.816Z,144788.13
2023-03-08T04:04:42.522Z,144771.31
2023-03-08T04:05:47.444Z,144759.31
2023-03-08T04:06:50.087Z,144761.72
2023-03-08T04:07:56.451Z,144743.75
2023-03-08T04:09:06.427Z,144780.94
2023-03-08T04:10:12.646Z,144737.72
2023-03-08T04:11:18.539Z,144762.91
2023-03-08T04:12:21.291Z,144752.16
2023-03-08T04:13:24.772Z,144780.94
2023-03-08T04:14:27.317Z,144788.13
2023-03-08T04:15:29.930Z,144754.53
2023-03-08T04:16:37.506Z,144766.50
2023-03-08T04:17:44.456Z,144723.34
2023-03-08T04:18:47.604Z,144730.53
2023-03-08T04:19:50.707Z,144734.13
2023-03-08T04:20:54.657Z,144752.16
2023-03-08T04:21:57.297Z,144728.16
2023-03-08T04:23:03.904Z,144704.16
2023-03-08T04:24:12.297Z,144687.38
2023-03-08T04:25:14.942Z,144722.16
2023-03-08T04:26:24.297Z,144731.72
2023-03-08T04:27:26.820Z,144742.56
2023-03-08T04:28:30.058Z,144752.16
2023-03-08T04:29:32.698Z,144754.53
2023-03-08T04:30:35.586Z,144749.75
2023-03-08T04:31:39.710Z,144766.50
2023-03-08T04:32:45.907Z,144764.13
2023-03-08T04:33:49.619Z,144759.31
2023-03-08T04:34:52.381Z,144754.53
2023-03-08T04:35:57.808Z,144764.13
2023-03-08T04:37:01.262Z,144761.72
2023-03-08T04:38:04.270Z,144761.72
2023-03-08T04:39:07.631Z,144771.31
2023-03-08T04:40:10.879Z,144778.53
2023-03-08T04:41:20.463Z,144771.31
2023-03-08T04:42:33.209Z,144768.91
2023-03-08T04:43:36.561Z,144800.09
2023-03-08T04:44:39.438Z,144783.31
2023-03-08T04:45:42.565Z,144766.50
2023-03-08T04:46:47.737Z,144780.94
2023-03-08T04:47:56.590Z,144779.75
2023-03-08T04:48:59.470Z,144764.13
2023-03-08T04:50:06.096Z,144768.91
2023-03-08T04:51:12.204Z,144783.31
2023-03-08T04:52:14.954Z,144766.50
2023-03-08T04:53:18.317Z,144761.72
2023-03-08T04:54:21.086Z,144771.31
2023-03-08T04:55:29.367Z,144773.69
2023-03-08T04:56:32.358Z,144772.50
2023-03-08T04:57:35.836Z,144754.53
2023-03-08T04:58:38.600Z,144759.31
2023-03-08T04:59:43.039Z,144742.56
2023-03-08T05:00:45.922Z,144737.72
2023-03-08T05:01:48.975Z,144728.16
2023-03-08T05:02:51.563Z,144749.75
2023-03-08T05:03:55.769Z,144742.56
2023-03-08T05:05:05.641Z,144723.34
2023-03-08T05:06:09.566Z,144754.53
2023-03-08T05:07:12.208Z,144740.13
2023-03-08T05:08:15.328Z,144713.78
2023-03-08T05:09:18.084Z,144702.94
2023-03-08T05:10:23.006Z,144689.78
2023-03-08T05:11:28.174Z,144732.94
2023-03-08T05:12:31.647Z,144719.75
2023-03-08T05:13:38.970Z,144740.13
2023-03-08T05:14:43.198Z,144713.78
2023-03-08T05:15:45.690Z,144695.75
2023-03-08T05:16:48.231Z,144683.78
2023-03-08T05:17:51.695Z,144684.97
2023-03-08T05:18:54.210Z,144689.78
2023-03-08T05:20:00.337Z,144668.19
2023-03-08T05:21:13.657Z,144707.75
2023-03-08T05:22:17.493Z,144699.34
2023-03-08T05:23:28.517Z,144740.13
2023-03-08T05:24:32.509Z,144708.94
2023-03-08T05:25:44.917Z,144737.72
2023-03-08T05:26:48.581Z,144707.75
2023-03-08T05:27:54.102Z,144714.97
2023-03-08T05:28:57.938Z,144710.19
2023-03-08T05:30:06.601Z,144746.16
2023-03-08T05:31:21.245Z,144777.34
2023-03-08T05:32:25.433Z,144747.34
2023-03-08T05:33:28.062Z,144742.56
2023-03-08T05:34:30.831Z,144732.94
2023-03-08T05:35:34.355Z,144717.38
2023-03-08T05:36:37.426Z,144730.53
2023-03-08T05:37:42.461Z,144737.72
2023-03-08T05:38:45.240Z,144744.94
2023-03-08T05:39:48.765Z,144752.16
2023-03-08T05:40:55.423Z,144746.16
2023-03-08T05:41:58.354Z,144732.94
2023-03-08T05:43:06.034Z,144717.38
2023-03-08T05:44:08.634Z,144725.75
2023-03-08T05:45:12.484Z,144723.34
2023-03-08T05:46:18.328Z,144725.75
2023-03-08T05:47:21.233Z,144718.56
2023-03-08T05:48:24.018Z,144735.31
2023-03-08T05:49:26.517Z,144743.75
2023-03-08T05:50:29.148Z,144766.50
2023-03-08T05:51:31.671Z,144764.13
2023-03-08T05:52:34.837Z,144764.13
2023-03-08T05:53:38.159Z,144762.91
2023-03-08T05:54:40.920Z,144761.72
2023-03-08T05:55:48.599Z,144776.16
2023-03-08T05:56:51.112Z,144779.75
2023-03-08T05:58:01.575Z,144773.69
2023-03-08T05:59:04.072Z,144771.31
2023-03-08T06:00:08.404Z,144778.53
2023-03-08T06:01:22.694Z,144794.09
2023-03-08T06:02:28.993Z,144809.72
2023-03-08T06:03:31.609Z,144796.50
2023-03-08T06:04:34.212Z,144794.09
2023-03-08T06:05:36.963Z,144801.31
2023-03-08T06:06:39.839Z,144807.34
2023-03-08T06:07:44.544Z,144807.34
2023-03-08T06:08:49.677Z,144795.31
2023-03-08T06:09:53.165Z,144785.72
2023-03-08T06:10:55.803Z,144777.34
2023-03-08T06:11:58.318Z,144798.91
2023-03-08T06:13:00.842Z,144792.91
2023-03-08T06:14:03.362Z,144798.91
2023-03-08T06:15:09.119Z,144808.53
2023-03-08T06:16:13.136Z,144809.72
2023-03-08T06:17:15.725Z,144807.34
2023-03-08T06:18:21.361Z,144804.88
2023-03-08T06:19:24.002Z,144819.31
2023-03-08T06:20:28.950Z,144802.50
2023-03-08T06:21:31.569Z,144810.94
2023-03-08T06:22:37.819Z,144827.69
2023-03-08T06:23:40.331Z,144825.31
2023-03-08T06:24:44.045Z,144833.69
2023-03-08T06:25:46.567Z,144845.72
2023-03-08T06:26:49.327Z,144833.69
2023-03-08T06:27:52.809Z,144845.72
2023-03-08T06:29:24.010Z,144848.13
2023-03-08T06:30:27.101Z,144857.69
2023-03-08T06:31:30.380Z,144869.69
2023-03-08T06:32:33.307Z,144874.50
2023-03-08T06:33:36.266Z,144869.69
2023-03-08T06:34:39.138Z,144886.50
2023-03-08T06:35:41.701Z,144888.91
2023-03-08T06:36:44.659Z,144879.31
2023-03-08T06:37:47.540Z,144881.69
2023-03-08T06:38:51.048Z,144890.09
2023-03-08T06:39:53.541Z,144904.53
2023-03-08T06:40:56.310Z,144906.91
2023-03-08T06:41:59.187Z,144900.88
2023-03-08T06:43:01.829Z,144915.31
2023-03-08T06:44:04.481Z,144903.28
2023-03-08T06:45:07.475Z,144924.88
2023-03-08T06:46:19.631Z,144951.31
2023-03-08T06:47:22.115Z,144929.69
2023-03-08T06:48:25.114Z,144951.31
2023-03-08T06:49:27.631Z,144960.91
2023-03-08T06:50:30.279Z,144980.13
2023-03-08T06:51:32.794Z,144995.69
2023-03-08T06:52:37.886Z,144970.53
2023-03-08T06:53:42.165Z,145001.75
2023-03-08T06:54:45.396Z,145006.53
2023-03-08T06:55:47.921Z,145050.94
2023-03-08T06:56:50.332Z,145035.34
2023-03-08T06:57:52.963Z,145052.13
2023-03-08T06:58:55.476Z,145046.13
2023-03-08T06:59:58.004Z,145058.13
2023-03-08T07:01:00.686Z,145067.78
2023-03-08T07:02:03.169Z,145096.53
2023-03-08T07:03:05.922Z,145092.94
2023-03-08T07:04:08.603Z,145090.53
2023-03-08T07:05:11.209Z,145109.78
2023-03-08T07:06:13.870Z,145132.59
2023-03-08T07:07:16.317Z,145145.81
2023-03-08T07:08:18.880Z,145145.81
2023-03-08T07:09:21.404Z,145145.81
2023-03-08T07:10:23.932Z,145153.00
2023-03-08T07:11:27.882Z,145156.59
2023-03-08T07:12:32.470Z,145165.03
2023-03-08T07:13:35.322Z,145161.38
2023-03-08T07:14:37.845Z,145138.59
2023-03-08T07:15:40.869Z,145160.19
2023-03-08T07:16:43.366Z,145155.41
2023-03-08T07:17:50.934Z,145201.06
2023-03-08T07:18:53.688Z,145165.03
2023-03-08T07:19:56.207Z,145174.63
2023-03-08T07:20:58.976Z,145174.63
2023-03-08T07:22:01.486Z,145238.31
2023-03-08T07:23:04.248Z,145237.09
2023-03-08T07:24:06.891Z,145251.50
2023-03-08T07:25:10.967Z,145258.69
2023-03-08T07:26:13.370Z,145213.06
2023-03-08T07:27:16.015Z,145237.09
2023-03-08T07:28:18.534Z,145264.75
2023-03-08T07:29:21.050Z,145252.69
2023-03-08T07:30:23.695Z,145268.34
2023-03-08T07:31:27.204Z,145268.34
2023-03-08T07:32:29.954Z,145249.09
2023-03-08T07:33:32.699Z,145282.72
2023-03-08T07:34:35.456Z,145268.34
2023-03-08T07:35:39.954Z,145268.34
2023-03-08T07:36:43.018Z,145250.28
2023-03-08T07:37:47.360Z,145246.69
2023-03-08T07:38:49.861Z,145257.50
2023-03-08T07:39:52.382Z,145201.06
2023-03-08T07:40:56.470Z,145196.28
2023-03-08T07:41:58.870Z,145219.06
2023-03-08T07:43:02.347Z,145238.31
2023-03-08T07:44:25.036Z,145237.09
2023-03-08T07:45:27.544Z,145216.66
2023-03-08T07:46:30.898Z,145263.53
2023-03-08T07:47:33.672Z,145277.94
2023-03-08T07:48:36.196Z,145287.53
2023-03-08T07:49:38.961Z,145318.78
2023-03-08T07:50:41.478Z,145300.78
2023-03-08T07:51:43.995Z,145304.38
2023-03-08T07:52:46.995Z,145267.13
2023-03-08T07:53:49.638Z,145294.78
2023-03-08T07:54:52.038Z,145312.78
2023-03-08T07:55:54.559Z,145313.97
2023-03-08T07:56:56.963Z,145305.59
2023-03-08T07:57:59.596Z,145323.59
2023-03-08T07:59:02.000Z,145268.34
2023-03-08T08:00:09.207Z,145306.78
2023-03-08T08:01:15.322Z,145354.84
2023-03-08T08:02:19.642Z,145374.06
2023-03-08T08:03:22.590Z,145401.72
2023-03-08T08:04:25.193Z,145433.00
2023-03-08T08:05:27.763Z,145423.38
2023-03-08T08:06:30.806Z,145426.97
2023-03-08T08:07:33.346Z,145467.84
2023-03-08T08:08:35.864Z,145453.38
2023-03-08T08:09:38.488Z,145443.78
2023-03-08T08:10:41.608Z,145453.38
2023-03-08T08:11:44.011Z,145459.44
2023-03-08T08:12:46.526Z,145428.19
2023-03-08T08:13:49.767Z,145420.94
2023-03-08T08:14:53.280Z,145459.44
2023-03-08T08:16:00.511Z,145501.50
2023-03-08T08:17:03.699Z,145478.66
2023-03-08T08:18:06.461Z,145470.25
2023-03-08T08:19:11.371Z,145472.66
2023-03-08T08:20:14.761Z,145429.38
2023-03-08T08:21:17.258Z,145463.03
2023-03-08T08:22:19.771Z,145489.50
2023-03-08T08:23:22.297Z,145491.91
2023-03-08T08:24:24.812Z,145463.03
2023-03-08T08:25:27.335Z,145465.44
2023-03-08T08:26:30.017Z,145472.66
2023-03-08T08:27:32.397Z,145491.91
2023-03-08T08:28:35.747Z,145496.72
2023-03-08T08:29:38.386Z,145514.72
2023-03-08T08:30:40.891Z,145535.19
2023-03-08T08:31:43.353Z,145536.38
2023-03-08T08:32:45.985Z,145547.19
2023-03-08T08:33:49.053Z,145590.50
2023-03-08T08:34:51.694Z,145600.13
2023-03-08T08:35:54.268Z,145657.88
2023-03-08T08:36:56.738Z,145665.09
2023-03-08T08:37:59.384Z,145671.09
2023-03-08T08:39:02.017Z,145701.16
2023-03-08T08:40:08.083Z,145734.84
2023-03-08T08:41:10.667Z,145718.03
2023-03-08T08:42:13.183Z,145744.47
2023-03-08T08:43:16.208Z,145774.56
2023-03-08T08:44:18.710Z,145760.13
2023-03-08T08:45:21.342Z,145732.47
2023-03-08T08:46:23.871Z,145734.84
2023-03-08T08:47:28.311Z,145775.75
2023-03-08T08:48:33.344Z,145804.66
2023-03-08T08:49:35.746Z,145734.84
2023-03-08T08:50:39.946Z,145802.25
2023-03-08T08:51:42.472Z,145832.34
2023-03-08T08:52:45.020Z,145905.78
2023-03-08T08:53:47.510Z,145959.97
2023-03-08T08:54:50.028Z,146025.00
2023-03-08T08:55:52.682Z,146073.19
2023-03-08T08:56:55.069Z,146132.19
2023-03-08T08:57:57.592Z,146187.63
2023-03-08T08:59:01.931Z,146209.34
2023-03-08T09:00:09.999Z,146279.25
2023-03-08T09:01:27.134Z,146278.03
2023-03-08T09:02:29.705Z,146255.13
2023-03-08T09:03:32.278Z,146221.38
2023-03-08T09:04:34.904Z,146193.66
2023-03-08T09:05:42.958Z,146264.75
2023-03-08T09:06:45.592Z,146198.47
2023-03-08T09:07:48.119Z,146151.50
2023-03-08T09:08:52.223Z,146092.44
2023-03-08T09:09:55.225Z,146106.94
2023-03-08T09:11:03.838Z,146111.75
2023-03-08T09:12:06.605Z,146081.63
2023-03-08T09:13:09.164Z,146091.25
2023-03-08T09:14:11.651Z,146088.84
2023-03-08T09:15:14.545Z,146092.44
2023-03-08T09:16:22.484Z,146150.28
2023-03-08T09:17:24.961Z,146163.53
2023-03-08T09:18:27.485Z,146115.34
2023-03-08T09:19:30.055Z,146027.41
2023-03-08T09:20:32.551Z,146086.44
2023-03-08T09:21:35.167Z,146126.19
2023-03-08T09:22:38.418Z,146088.84
2023-03-08T09:23:41.428Z,146074.41
2023-03-08T09:24:45.872Z,146122.56
2023-03-08T09:25:56.534Z,146133.41
2023-03-08T09:26:58.936Z,146167.13
2023-03-08T09:28:01.464Z,146139.47
2023-03-08T09:29:07.820Z,146200.94
2023-03-08T09:30:12.989Z,146176.81
2023-03-08T09:31:17.153Z,146173.19
2023-03-08T09:32:19.635Z,146165.94
2023-03-08T09:33:22.341Z,146184.03
2023-03-08T09:34:24.899Z,146192.44
2023-03-08T09:35:27.288Z,146182.84
2023-03-08T09:36:29.786Z,146209.34
2023-03-08T09:37:32.313Z,146192.44
2023-03-08T09:38:35.077Z,146225.00
2023-03-08T09:39:39.026Z,146266.00
2023-03-08T09:40:57.870Z,146355.19
2023-03-08T09:42:05.792Z,146477.00
2023-03-08T09:43:20.787Z,146565.13
2023-03-08T09:44:35.324Z,146631.47
2023-03-08T09:45:38.013Z,146590.47
2023-03-08T09:46:49.010Z,146547.00
2023-03-08T09:48:04.506Z,146615.75
2023-03-08T09:49:13.264Z,146602.50
2023-03-08T09:50:29.813Z,146520.41
2023-03-08T09:51:38.682Z,146415.47
2023-03-08T09:52:48.535Z,146370.88
2023-03-08T09:54:00.044Z,146343.16
2023-03-08T09:55:04.578Z,146397.41
2023-03-08T09:56:24.159Z,146454.06
2023-03-08T09:57:37.219Z,146515.59
2023-03-08T09:59:06.038Z,146537.38
2023-03-08T10:00:19.982Z,146588.00
2023-03-08T10:01:37.610Z,146553.03
2023-03-08T10:03:01.778Z,146636.28
2023-03-08T10:04:40.824Z,146592.88
2023-03-08T10:05:49.117Z,146498.72
2023-03-08T10:07:08.921Z,146460.13
2023-03-08T10:08:11.317Z,146513.16
2023-03-08T10:09:42.036Z,146590.47
2023-03-08T10:10:52.972Z,146468.56
2023-03-08T10:12:20.442Z,146452.84
2023-03-08T10:13:40.603Z,146467.34
2023-03-08T10:14:49.406Z,146513.16
2023-03-08T10:15:57.765Z,146511.97
2023-03-08T10:17:10.371Z,146544.59
2023-03-08T10:18:19.003Z,146560.28
2023-03-08T10:19:39.772Z,146661.66
2023-03-08T10:20:43.006Z,146680.94
2023-03-08T10:21:47.087Z,146665.25
2023-03-08T10:22:57.647Z,146730.44
2023-03-08T10:24:05.446Z,146614.56
2023-03-08T10:25:34.187Z,146527.72
2023-03-08T10:26:36.650Z,146522.81
2023-03-08T10:27:39.292Z,146516.78
2023-03-08T10:28:41.932Z,146475.78
2023-03-08T10:29:56.454Z,146502.34
2023-03-08T10:31:02.183Z,146522.81
2023-03-08T10:32:05.173Z,146485.44
2023-03-08T10:33:12.071Z,146613.34
2023-03-08T10:34:20.344Z,146728.03
2023-03-08T10:35:54.062Z,146874.09
2023-03-08T10:37:06.903Z,146901.88
2023-03-08T10:38:16.884Z,146967.09
2023-03-08T10:39:21.208Z,146955.03
2023-03-08T10:40:23.822Z,146901.88
2023-03-08T10:41:27.075Z,146949.00
2023-03-08T10:42:29.827Z,146868.06
2023-03-08T10:43:36.302Z,146892.22
2023-03-08T10:44:45.785Z,146825.81
2023-03-08T10:45:59.078Z,146750.94
2023-03-08T10:47:04.151Z,146757.00
2023-03-08T10:48:07.031Z,146824.63
2023-03-08T10:49:19.876Z,146888.63
2023-03-08T10:50:26.113Z,146949.00
2023-03-08T10:51:29.592Z,146728.03
2023-03-08T10:52:32.242Z,146720.81
2023-03-08T10:53:34.754Z,146766.66
2023-03-08T10:54:37.161Z,146819.78
2023-03-08T10:55:51.439Z,146807.69
2023-03-08T10:57:00.076Z,146790.81
2023-03-08T10:58:03.097Z,146746.13
2023-03-08T10:59:15.914Z,146773.88
2023-03-08T11:00:25.049Z,146783.53
2023-03-08T11:01:33.698Z,146856.00
2023-03-08T11:02:36.204Z,146907.91
2023-03-08T11:03:38.722Z,146974.34
2023-03-08T11:04:52.573Z,147071.00
2023-03-08T11:06:16.283Z,147114.56
2023-03-08T11:07:29.246Z,147191.91
2023-03-08T11:08:38.373Z,147246.31
2023-03-08T11:09:41.001Z,147257.19
2023-03-08T11:10:43.553Z,147205.19
2023-03-08T11:11:46.164Z,147067.38
2023-03-08T11:12:48.749Z,147032.34
2023-03-08T11:13:52.660Z,147058.94
2023-03-08T11:14:55.229Z,147000.94
2023-03-08T11:16:35.610Z,146913.94
2023-03-08T11:17:39.629Z,146959.88
2023-03-08T11:18:58.960Z,147021.47
2023-03-08T11:20:13.652Z,147136.31
2023-03-08T11:21:33.578Z,147153.25
2023-03-08T11:22:45.450Z,147252.38
2023-03-08T11:23:59.263Z,147301.91
2023-03-08T11:25:01.665Z,147305.53
2023-03-08T11:26:22.778Z,147375.72
2023-03-08T11:27:32.072Z,147349.09
2023-03-08T11:28:40.600Z,147457.94
2023-03-08T11:30:18.933Z,147716.97
2023-03-08T11:31:41.140Z,147792.00
2023-03-08T11:33:14.492Z,147777.50
2023-03-08T11:34:55.302Z,147697.63
2023-03-08T11:36:29.865Z,147789.59
2023-03-08T11:37:44.265Z,147830.81
2023-03-08T11:38:56.147Z,147782.34
2023-03-08T11:40:20.156Z,147816.25
2023-03-08T11:41:25.217Z,147767.84
2023-03-08T11:42:27.710Z,147654.00
2023-03-08T11:43:42.225Z,147794.44
2023-03-08T11:44:50.268Z,147790.81
2023-03-08T11:46:23.188Z,147899.84
2023-03-08T11:47:54.107Z,147827.13
2023-03-08T11:49:10.910Z,147928.97
2023-03-08T11:50:25.458Z,147954.34
2023-03-08T11:51:41.414Z,147710.91
2023-03-08T11:53:19.073Z,147666.16
2023-03-08T11:54:39.473Z,147595.91
2023-03-08T11:56:12.631Z,147453.09
2023-03-08T11:57:18.123Z,147447.06
2023-03-08T11:58:31.192Z,147535.41
2023-03-08T11:59:46.918Z,147476.09
2023-03-08T12:00:53.758Z,147217.31
2023-03-08T12:02:11.041Z,147336.97
2023-03-08T12:03:29.457Z,147436.16
2023-03-08T12:05:13.880Z,147421.66
2023-03-08T12:06:40.933Z,147426.50
2023-03-08T12:07:52.993Z,147370.84
2023-03-08T12:09:01.505Z,147459.16
2023-03-08T12:10:29.876Z,147579.00
2023-03-08T12:11:57.118Z,147579.00
2023-03-08T12:13:25.206Z,147514.81
2023-03-08T12:14:31.439Z,147413.19
2023-03-08T12:16:03.520Z,147524.47
2023-03-08T12:17:19.324Z,147484.56
2023-03-08T12:18:53.783Z,147433.72
2023-03-08T12:19:56.285Z,147403.50
2023-03-08T12:21:27.491Z,147473.69
2023-03-08T12:22:31.278Z,147466.41
2023-03-08T12:23:41.884Z,147564.44
2023-03-08T12:25:07.339Z,147622.53
2023-03-08T12:26:27.402Z,147693.94
2023-03-08T12:27:45.283Z,147756.91
2023-03-08T12:28:54.254Z,147660.06
2023-03-08T12:30:05.902Z,147735.16
2023-03-08T12:31:31.535Z,147767.84
2023-03-08T12:32:38.652Z,147667.34
2023-03-08T12:33:41.469Z,147612.88
2023-03-08T12:34:46.461Z,147519.66
2023-03-08T12:35:51.707Z,147477.31